• Join FlightAware (Why Join?)
  • Login
  • US Flag 
07:20PM EDT


 

Airport Tracker/Info


-or-


 

Live Flight TrackerFlight Track Log ✈ LXJ545 ✈ 27-Jun-2013 ✈ KRNT - KSUN

Flight Track Log - Related Links

Times and Time Zones

All times are in EDT time to prevent confusion due to time zone crossing. See the LXJ545 flight status page for this flight to view local times or setup timezone preferences in your user account.

Time Position Orientation Groundspeed Altitude Reporting Facility
EDT Latitude Longitude Course Direction KTS MPH feet Rate Location/Type
02:15PM 47.3853 -122.0792 116° Southeast 184 212 3,000  Level Seattle Center
02:16PM 47.3744 -122.0458 116° Southeast 178 205 3,000 60 Level Seattle Center
02:17PM 47.3242 -122.0411 176° South 198 228 3,100 900 Climbing Seattle Center
02:17PM 47.2825 -122.0514 189° South 200 230 4,500 3,240 Climbing Seattle Center
02:18PM 47.2228 -122.0669 190° South 215 247 8,700 3,840 Climbing Seattle Center
02:19PM 47.1697 -122.0756 186° South 193 222 12,400 2,760 Climbing Seattle Center
02:20PM 47.1036 -122.0867 187° South 253 291 14,400 1,980 Climbing Seattle Center
02:21PM 47.0094 -122.1033 187° South 321 369 16,500 2,340 Climbing Seattle Center
02:22PM 46.9122 -122.1036 180° South 360 414 19,200 2,700 Climbing Seattle Center
02:23PM 46.8136 -122.0667 166° South 366 421 22,100 2,640 Climbing Seattle Center
02:24PM 46.7364 -121.9522 135° Southeast 415 478 24,600 2,340 Climbing Seattle Center
02:26PM 46.6747 -121.8114 123° Southeast 417 480 26,900 2,040 Climbing Seattle Center
02:27PM 46.6125 -121.6642 122° Southeast 427 491 28,900 1,440 Climbing Seattle Center
02:28PM 46.5428 -121.5008 122° Southeast 444 511 29,900 960 Climbing Seattle Center
02:29PM 46.4717 -121.3353 122° Southeast 472 543 30,900 1,020 Climbing Seattle Center
02:30PM 46.3989 -121.1675 122° Southeast 487 560 32,000 1,140 Climbing Seattle Center
02:31PM 46.3239 -120.9956 122° Southeast 502 578 33,300 1,560 Climbing Seattle Center
02:32PM 46.2356 -120.7956 123° Southeast 494 568 35,300 1,680 Climbing Seattle Center
02:33PM 46.1622 -120.6303 123° Southeast 491 565 36,800 1,440 Climbing Seattle Center
02:34PM 46.0894 -120.4669 123° Southeast 486 559 38,300 1,260 Climbing Seattle Center
02:35PM 46.0172 -120.3069 123° Southeast 479 551 39,500 1,080 Climbing Seattle Center
02:36PM 45.9461 -120.1483 123° Southeast 475 547 40,500 720 Climbing Seattle Center
02:37PM 45.8761 -119.9936 123° Southeast 465 535 41,000 240 Climbing Seattle Center
02:38PM 45.8044 -119.8381 123° Southeast 465 535 41,000  Level Seattle Center
02:39PM 45.7331 -119.6828 123° Southeast 466 536 41,000  Level Seattle Center
02:40PM 45.6622 -119.5292 123° Southeast 463 533 41,000  Level Seattle Center
02:41PM 45.5919 -119.3778 124° Southeast 459 528 41,000  Level Seattle Center
02:42PM 45.5067 -119.1958 124° Southeast 458 527 41,000  Level Seattle Center
02:43PM 45.4353 -119.0447 124° Southeast 458 527 41,000  Level Seattle Center
02:44PM 45.3647 -118.8950 124° Southeast 456 525 41,000  Level Seattle Center
02:45PM 45.2931 -118.7458 124° Southeast 456 525 41,000  Level Seattle Center
02:46PM 45.2225 -118.5956 124° Southeast 458 527 41,000  Level Seattle Center
02:47PM 45.1581 -118.4358 120° Southeast 465 535 41,000  Level Seattle Center
02:48PM 45.0922 -118.2742 120° Southeast 472 543 41,000  Level Seattle Center
02:49PM 45.0236 -118.1047 120° Southeast 473 544 41,000  Level Seattle Center
02:50PM 44.9494 -117.9275 121° Southeast 471 542 41,000  Level Seattle Center
02:51PM 44.8842 -117.7717 121° Southeast 478 550 41,000  Level Seattle Center
02:52PM 44.8183 -117.6125 120° Southeast 488 562 41,000  Level Seattle Center
02:53PM 44.7411 -117.4272 120° Southeast 491 565 41,000  Level Seattle Center
02:54PM 44.6744 -117.2719 121° Southeast 487 560 41,000  Level Seattle Center
02:55PM 44.5994 -117.0947 121° Southeast 475 547 41,000  Level Seattle Center
02:56PM 44.5361 -116.9450 121° Southeast 469 540 41,000  Level Seattle Center
02:57PM 44.4728 -116.7981 121° Southeast 464 534 41,000  Level Seattle Center
02:58PM 44.3994 -116.6281 121° Southeast 459 528 41,000  Level Seattle Center
02:59PM 44.3147 -116.4344 121° Southeast 462 532 41,000  Level Salt Lake Center
03:01PM 44.2522 -116.2897 121° Southeast 462 532 41,000  Level Salt Lake Center
03:02PM 44.1794 -116.1206 121° Southeast 460 529 41,000  Level Salt Lake Center
03:03PM 44.1161 -115.9744 121° Southeast 465 535 41,000 -120 Level Salt Lake Center
03:04PM 44.0381 -115.7994 122° Southeast 478 550 40,800 -1,800 Descending Salt Lake Center
03:05PM 43.9725 -115.6500 121° Southeast 474 545 37,300 -4,200 Descending Salt Lake Center
03:06PM 43.8964 -115.4814 122° Southeast 465 535 32,200 -4,020 Descending Salt Lake Center
03:07PM 43.8283 -115.3308 122° Southeast 480 552 29,100 -2,640 Descending Salt Lake Center
03:08PM 43.7497 -115.1561 122° Southeast 478 550 26,800 -2,640 Descending Salt Lake Center
03:09PM 43.6856 -115.0131 122° Southeast 460 529 23,700 -3,360 Descending Salt Lake Center
03:10PM 43.6139 -114.8589 123° Southeast 452 520 19,900 -3,540 Descending Salt Lake Center
03:11PM 43.5469 -114.7111 122° Southeast 434 499 16,500 -3,300 Descending Salt Lake Center
03:12PM 43.4864 -114.5747 121° Southeast 394 453 13,100 -1,860 Descending Salt Lake Center
03:13PM 43.4406 -114.4722 122° Southeast 357 411 12,700 -480 Descending Salt Lake Center
03:14PM 43.3919 -114.3631 121° Southeast 342 394 12,200 -540 Descending Salt Lake Center